KLM52E EHAM-LEBL
Flight info
| Callsign | KLM52E |
|---|---|
| Flight time | N/A |
| Altitude | 31000 |
| Route | WOODY N872 MEDIL/N0454F350 DCT KOVIN DCT DUCRA UM728 RESMI UN857 DISAK DCT DIRMO DCT VALKU DCT ATSUP DCT MINSO DCT DEGOL DCT PPG DCT ALBER |
| Aircraft | B738/M-SDE2E3FGHIRWXY/LB1 |
Departure
| Time | 2026-04-29 18:26 |
|---|---|
| Airport | Amsterdam Airport Schiphol (EHAM) |
Arrival
| Time | N/A |
|---|---|
| Airport | Josep Tarradellas Barcelona-El Prat Airport (LEBL) |
| Time | Latitude | Longitude | Altitude | Speed | Heading |
|---|---|---|---|---|---|
| 2026-04-29 17:53 | 52.30702 | 4.77279 | -2 ft | 0 kts | 2° |
| 2026-04-29 18:08 | 52.30705 | 4.77279 | -2 ft | 0 kts | 3° |
| 2026-04-29 18:11 | 52.30701 | 4.77279 | -2 ft | 3 kts | 2° |
| 2026-04-29 18:11 | 52.30682 | 4.77283 | -2 ft | 4 kts | 349° |
| 2026-04-29 18:11 | 52.30663 | 4.77282 | -2 ft | 4 kts | 57° |
| 2026-04-29 18:12 | 52.30653 | 4.77250 | -2 ft | 2 kts | 64° |
| 2026-04-29 18:12 | 52.30653 | 4.77249 | -2 ft | 1 kts | 64° |
| 2026-04-29 18:17 | 52.30653 | 4.77252 | -2 ft | 1 kts | 65° |
| 2026-04-29 18:17 | 52.30650 | 4.77319 | -2 ft | 10 kts | 102° |
| 2026-04-29 18:17 | 52.30640 | 4.77475 | -2 ft | 16 kts | 89° |
| 2026-04-29 18:18 | 52.30705 | 4.77593 | -2 ft | 16 kts | 8° |
| 2026-04-29 18:18 | 52.30812 | 4.77604 | -2 ft | 15 kts | 4° |
| 2026-04-29 18:18 | 52.30914 | 4.77613 | -2 ft | 14 kts | 2° |
| 2026-04-29 18:18 | 52.31013 | 4.77621 | -2 ft | 14 kts | 4° |
| 2026-04-29 18:19 | 52.31106 | 4.77632 | -2 ft | 13 kts | 4° |
| 2026-04-29 18:19 | 52.31196 | 4.77640 | -2 ft | 13 kts | 2° |
| 2026-04-29 18:19 | 52.31284 | 4.77643 | -2 ft | 12 kts | 0° |
| 2026-04-29 18:19 | 52.31370 | 4.77653 | -2 ft | 12 kts | 5° |
| 2026-04-29 18:20 | 52.31455 | 4.77615 | -2 ft | 15 kts | 325° |
| 2026-04-29 18:20 | 52.31542 | 4.77501 | -2 ft | 17 kts | 309° |
| 2026-04-29 18:20 | 52.31575 | 4.77324 | -2 ft | 17 kts | 269° |
| 2026-04-29 18:20 | 52.31569 | 4.77140 | -2 ft | 16 kts | 267° |
| 2026-04-29 18:21 | 52.31563 | 4.76962 | -2 ft | 15 kts | 266° |
| 2026-04-29 18:21 | 52.31557 | 4.76792 | -2 ft | 15 kts | 267° |
| 2026-04-29 18:21 | 52.31552 | 4.76616 | -2 ft | 16 kts | 267° |
| 2026-04-29 18:21 | 52.31543 | 4.76421 | -2 ft | 18 kts | 265° |
| 2026-04-29 18:22 | 52.31538 | 4.76206 | -2 ft | 20 kts | 267° |
| 2026-04-29 18:22 | 52.31528 | 4.75977 | -2 ft | 21 kts | 266° |
| 2026-04-29 18:22 | 52.31520 | 4.75732 | -2 ft | 22 kts | 266° |
| 2026-04-29 18:22 | 52.31510 | 4.75487 | -2 ft | 21 kts | 263° |
| 2026-04-29 18:23 | 52.31501 | 4.75253 | -2 ft | 21 kts | 273° |
| 2026-04-29 18:23 | 52.31497 | 4.75021 | -2 ft | 20 kts | 267° |
| 2026-04-29 18:23 | 52.31490 | 4.74797 | -2 ft | 19 kts | 266° |
| 2026-04-29 18:23 | 52.31561 | 4.74660 | -2 ft | 19 kts | 359° |
| 2026-04-29 18:24 | 52.31665 | 4.74738 | -1 ft | 15 kts | 72° |
| 2026-04-29 18:24 | 52.31669 | 4.74796 | -2 ft | 0 kts | 86° |
| 2026-04-29 18:24 | 52.31669 | 4.74801 | -2 ft | 1 kts | 86° |
| 2026-04-29 18:24 | 52.31669 | 4.74806 | -2 ft | 1 kts | 86° |
| 2026-04-29 18:25 | 52.31671 | 4.74861 | -3 ft | 19 kts | 87° |
| 2026-04-29 18:25 | 52.31690 | 4.75453 | -5 ft | 84 kts | 86° |
| 2026-04-29 18:25 | 52.31735 | 4.76720 | -2 ft | 137 kts | 86° |
| 2026-04-29 18:25 | 52.31787 | 4.78435 | 294 ft | 158 kts | 88° |
| 2026-04-29 18:26 | 52.31855 | 4.80351 | 684 ft | 179 kts | 90° |
| 2026-04-29 18:26 | 52.31425 | 4.82227 | 1381 ft | 183 kts | 128° |
| 2026-04-29 18:26 | 52.30301 | 4.83418 | 1792 ft | 208 kts | 155° |
| 2026-04-29 18:26 | 52.28815 | 4.83853 | 2304 ft | 219 kts | 164° |
| 2026-04-29 18:27 | 52.27307 | 4.84269 | 2958 ft | 221 kts | 163° |
| 2026-04-29 18:27 | 52.25791 | 4.84728 | 3716 ft | 221 kts | 164° |
| 2026-04-29 18:27 | 52.24188 | 4.84926 | 4114 ft | 245 kts | 174° |
| 2026-04-29 18:27 | 52.22421 | 4.84880 | 4606 ft | 258 kts | 176° |
| 2026-04-29 18:28 | 52.20607 | 4.84795 | 5316 ft | 262 kts | 176° |
| 2026-04-29 18:28 | 52.18767 | 4.84716 | 6005 ft | 267 kts | 176° |
| 2026-04-29 18:28 | 52.16899 | 4.84649 | 6743 ft | 270 kts | 176° |
| 2026-04-29 18:28 | 52.15001 | 4.84592 | 7383 ft | 275 kts | 176° |
| 2026-04-29 18:29 | 52.13100 | 4.84542 | 8011 ft | 279 kts | 176° |
| 2026-04-29 18:29 | 52.11778 | 4.84510 | 8460 ft | 282 kts | 176° |
| 2026-04-29 18:29 | 52.09160 | 4.84451 | 9341 ft | 287 kts | 176° |
| 2026-04-29 18:29 | 52.07142 | 4.84315 | 9980 ft | 296 kts | 186° |
| 2026-04-29 18:30 | 52.05164 | 4.83182 | 10562 ft | 307 kts | 200° |
| 2026-04-29 18:30 | 52.03160 | 4.81672 | 10737 ft | 328 kts | 201° |
| 2026-04-29 18:30 | 52.01031 | 4.80040 | 10896 ft | 348 kts | 202° |
| 2026-04-29 18:30 | 51.98776 | 4.78327 | 11032 ft | 367 kts | 202° |
| 2026-04-29 18:31 | 51.96403 | 4.76549 | 11256 ft | 382 kts | 201° |
| 2026-04-29 18:31 | 51.93960 | 4.74740 | 11734 ft | 389 kts | 201° |
| 2026-04-29 18:31 | 51.91482 | 4.72924 | 12332 ft | 391 kts | 201° |
| 2026-04-29 18:31 | 51.88989 | 4.71109 | 12921 ft | 395 kts | 201° |
| 2026-04-29 18:32 | 51.86471 | 4.69287 | 13500 ft | 399 kts | 201° |
| 2026-04-29 18:32 | 51.81377 | 4.65619 | 14644 ft | 407 kts | 201° |
| 2026-04-29 18:32 | 51.78782 | 4.63756 | 15237 ft | 409 kts | 201° |
| 2026-04-29 18:33 | 51.76166 | 4.61879 | 15829 ft | 413 kts | 201° |
| 2026-04-29 18:33 | 51.73531 | 4.59993 | 16418 ft | 415 kts | 201° |
| 2026-04-29 18:33 | 51.70873 | 4.58092 | 16991 ft | 419 kts | 201° |
| 2026-04-29 18:33 | 51.68203 | 4.56184 | 17524 ft | 422 kts | 201° |
| 2026-04-29 18:34 | 51.65507 | 4.54260 | 18072 ft | 425 kts | 201° |
| 2026-04-29 18:34 | 51.63675 | 4.52954 | 18426 ft | 427 kts | 201° |
| 2026-04-29 18:34 | 51.60053 | 4.50376 | 19066 ft | 431 kts | 201° |
| 2026-04-29 18:34 | 51.57301 | 4.48420 | 19571 ft | 433 kts | 201° |
| 2026-04-29 18:35 | 51.54535 | 4.46456 | 20088 ft | 435 kts | 201° |
| 2026-04-29 18:35 | 51.51761 | 4.44490 | 20566 ft | 437 kts | 201° |
| 2026-04-29 18:35 | 51.48965 | 4.42510 | 21042 ft | 440 kts | 201° |
| 2026-04-29 18:35 | 51.46160 | 4.40526 | 21514 ft | 442 kts | 201° |
| 2026-04-29 18:36 | 51.43329 | 4.38526 | 21972 ft | 445 kts | 201° |
| 2026-04-29 18:36 | 51.40529 | 4.36552 | 22408 ft | 447 kts | 201° |
| 2026-04-29 18:36 | 51.37690 | 4.34476 | 22837 ft | 450 kts | 202° |
| 2026-04-29 18:36 | 51.34854 | 4.32334 | 23261 ft | 453 kts | 202° |
| 2026-04-29 18:37 | 51.31988 | 4.30173 | 23673 ft | 455 kts | 202° |
| 2026-04-29 18:37 | 51.29115 | 4.28003 | 24040 ft | 458 kts | 202° |
| 2026-04-29 18:37 | 51.26236 | 4.25808 | 24382 ft | 460 kts | 202° |
| 2026-04-29 18:37 | 51.23334 | 4.23592 | 24718 ft | 463 kts | 202° |
| 2026-04-29 18:38 | 51.20420 | 4.21374 | 25038 ft | 465 kts | 202° |
| 2026-04-29 18:38 | 51.17497 | 4.19158 | 25351 ft | 467 kts | 202° |
| 2026-04-29 18:38 | 51.14508 | 4.17111 | 25664 ft | 467 kts | 197° |
| 2026-04-29 18:38 | 51.11438 | 4.15399 | 25968 ft | 469 kts | 195° |
| 2026-04-29 18:39 | 51.08331 | 4.13775 | 26274 ft | 470 kts | 194° |
| 2026-04-29 18:39 | 51.05214 | 4.12156 | 26558 ft | 473 kts | 195° |
| 2026-04-29 18:39 | 51.02083 | 4.10503 | 26844 ft | 475 kts | 195° |
| 2026-04-29 18:39 | 50.98942 | 4.08813 | 27131 ft | 477 kts | 195° |
| 2026-04-29 18:40 | 50.95794 | 4.07099 | 27407 ft | 480 kts | 195° |
| 2026-04-29 18:40 | 50.92632 | 4.05373 | 27685 ft | 482 kts | 195° |
| 2026-04-29 18:40 | 50.89455 | 4.03645 | 27943 ft | 484 kts | 195° |
| 2026-04-29 18:40 | 50.86278 | 4.01860 | 28202 ft | 487 kts | 197° |
| 2026-04-29 18:41 | 50.76846 | 3.95771 | 29313 ft | 486 kts | 199° |
| 2026-04-29 18:41 | 50.73766 | 3.93754 | 29688 ft | 485 kts | 199° |
| 2026-04-29 18:42 | 50.70596 | 3.91705 | 30043 ft | 485 kts | 198° |
| 2026-04-29 18:42 | 50.67510 | 3.89730 | 30376 ft | 484 kts | 198° |
| 2026-04-29 18:42 | 50.64393 | 3.87745 | 30693 ft | 483 kts | 198° |
| 2026-04-29 18:42 | 50.61279 | 3.85765 | 31012 ft | 482 kts | 198° |
| 2026-04-29 18:43 | 50.58164 | 3.83787 | 31227 ft | 484 kts | 199° |
| 2026-04-29 18:43 | 50.55034 | 3.81757 | 31207 ft | 487 kts | 200° |
| 2026-04-29 18:43 | 50.48848 | 3.77511 | 31192 ft | 482 kts | 200° |
| 2026-04-29 18:44 | 50.42736 | 3.73297 | 31202 ft | 480 kts | 200° |
| 2026-04-29 18:44 | 50.36608 | 3.69131 | 31180 ft | 480 kts | 200° |
| 2026-04-29 18:45 | 50.30491 | 3.64992 | 31182 ft | 479 kts | 200° |
| 2026-04-29 18:45 | 50.25402 | 3.61556 | 31178 ft | 478 kts | 200° |
| 2026-04-29 18:46 | 50.19291 | 3.57437 | 31180 ft | 477 kts | 200° |
| 2026-04-29 18:46 | 50.13194 | 3.53339 | 31181 ft | 476 kts | 201° |
| 2026-04-29 18:47 | 50.07109 | 3.49260 | 31166 ft | 476 kts | 201° |
| 2026-04-29 18:47 | 50.01030 | 3.45195 | 31162 ft | 475 kts | 201° |
| 2026-04-29 18:48 | 49.94999 | 3.41175 | 31153 ft | 474 kts | 201° |
| 2026-04-29 18:48 | 49.88899 | 3.37120 | 31158 ft | 474 kts | 201° |
| 2026-04-29 18:49 | 49.82877 | 3.33127 | 31149 ft | 474 kts | 201° |
| 2026-04-29 18:49 | 49.76816 | 3.29119 | 31149 ft | 474 kts | 201° |
| 2026-04-29 18:50 | 49.70746 | 3.25116 | 31145 ft | 474 kts | 201° |
| 2026-04-29 18:50 | 49.64666 | 3.21118 | 31134 ft | 475 kts | 201° |
| 2026-04-29 18:51 | 49.58600 | 3.17140 | 31151 ft | 475 kts | 201° |
| 2026-04-29 18:51 | 49.52522 | 3.13162 | 31125 ft | 477 kts | 201° |
| 2026-04-29 18:52 | 49.46467 | 3.09005 | 31128 ft | 477 kts | 205° |
| 2026-04-29 18:52 | 49.40470 | 3.04553 | 31132 ft | 478 kts | 205° |
| 2026-04-29 18:53 | 49.34473 | 3.00082 | 31131 ft | 479 kts | 205° |